createdAt,value
2018-10-05T00:00:08.866Z,96175.31
2018-10-05T00:02:37.307Z,96179.77
2018-10-05T00:05:05.798Z,96180.58
2018-10-05T00:07:34.286Z,96178.22
2018-10-05T00:10:02.743Z,96173.13
2018-10-05T00:12:31.188Z,96170.87
2018-10-05T00:14:59.610Z,96170.36
2018-10-05T00:17:28.093Z,96171.55
2018-10-05T00:19:56.507Z,96172.64
2018-10-05T00:22:24.986Z,96170.11
2018-10-05T00:24:53.405Z,96176.66
2018-10-05T00:27:21.833Z,96170.83
2018-10-05T00:29:50.268Z,96177.63
2018-10-05T00:32:18.798Z,96169.95
2018-10-05T00:34:47.195Z,96169.34
2018-10-05T00:37:15.660Z,96166.03
2018-10-05T00:39:44.172Z,96162.21
2018-10-05T00:42:12.650Z,96160.19
2018-10-05T00:44:41.070Z,96159.60
2018-10-05T00:47:09.567Z,96158.77
2018-10-05T00:49:38.020Z,96153.09
2018-10-05T00:52:06.534Z,96155.95
2018-10-05T00:54:35.411Z,96157.80
2018-10-05T00:57:03.898Z,96155.27
2018-10-05T00:59:32.527Z,96156.41
2018-10-05T01:02:00.985Z,96151.24
2018-10-05T01:04:29.433Z,96151.23
2018-10-05T01:06:58.150Z,96151.16
2018-10-05T01:09:26.727Z,96150.06
2018-10-05T01:11:55.223Z,96144.59
2018-10-05T01:20:32.071Z,96142.59
2018-10-05T01:50:21.356Z,96131.60
2018-10-05T01:52:49.829Z,96131.48
2018-10-05T01:55:18.298Z,96133.02
2018-10-05T01:57:46.721Z,96135.17
2018-10-05T02:00:15.187Z,96142.20
2018-10-05T02:02:43.690Z,96126.79
2018-10-05T02:05:12.101Z,96141.15
2018-10-05T02:07:40.509Z,96132.81
2018-10-05T02:10:09.047Z,96132.38
2018-10-05T02:12:37.477Z,96129.12
2018-10-05T02:15:06.097Z,96127.91
2018-10-05T02:17:34.534Z,96124.84
2018-10-05T02:20:03.694Z,96132.57
2018-10-05T02:22:32.154Z,96122.17
2018-10-05T02:25:00.583Z,96125.08
2018-10-05T02:27:29.097Z,96118.72
2018-10-05T02:29:57.500Z,96110.27
2018-10-05T02:32:25.939Z,96116.58
2018-10-05T02:34:54.425Z,96110.88
2018-10-05T02:37:22.886Z,96102.66
2018-10-05T02:39:51.395Z,96104.09
2018-10-05T02:42:19.842Z,96094.78
2018-10-05T02:44:48.244Z,96098.57
2018-10-05T02:47:16.766Z,96099.16
2018-10-05T02:49:45.226Z,96093.76
2018-10-05T02:52:13.675Z,96088.44
2018-10-05T02:54:42.103Z,96092.45
2018-10-05T02:57:10.574Z,96095.84
2018-10-05T02:59:40.487Z,96091.35
2018-10-05T03:02:20.118Z,96091.61
2018-10-05T03:04:48.526Z,96090.30
2018-10-05T03:07:16.994Z,96088.77
2018-10-05T03:09:45.435Z,96095.98
2018-10-05T03:12:13.917Z,96091.81
2018-10-05T03:14:42.315Z,96094.04
2018-10-05T03:17:10.726Z,96091.17
2018-10-05T03:20:03.516Z,96083.02
2018-10-05T03:22:32.253Z,96078.17
2018-10-05T03:25:00.678Z,96079.77
2018-10-05T03:27:29.159Z,96080.78
2018-10-05T03:29:57.564Z,96081.84
2018-10-05T03:32:25.970Z,96069.69
2018-10-05T03:34:54.438Z,96070.73
2018-10-05T03:37:22.934Z,96070.78
2018-10-05T03:39:51.392Z,96067.87
2018-10-05T03:48:24.759Z,96063.30
2018-10-05T03:50:53.386Z,96063.93
2018-10-05T03:53:21.973Z,96062.34
2018-10-05T03:55:50.680Z,96061.65
2018-10-05T03:58:19.300Z,96061.17
2018-10-05T04:00:54.972Z,96054.61
2018-10-05T04:03:23.526Z,96055.19
2018-10-05T04:05:58.580Z,96056.28
2018-10-05T04:08:27.572Z,96060.09
2018-10-05T04:11:03.008Z,96059.94
2018-10-05T04:13:33.324Z,96055.25
2018-10-05T04:16:02.477Z,96057.35
2018-10-05T04:18:31.525Z,96051.14
2018-10-05T04:21:00.979Z,96050.86
2018-10-05T04:23:30.138Z,96050.14
2018-10-05T04:25:59.132Z,96041.45
2018-10-05T04:28:31.125Z,96039.63
2018-10-05T04:31:00.203Z,96041.74
2018-10-05T04:33:30.853Z,96044.80
2018-10-05T04:38:54.043Z,96040.56
2018-10-05T04:41:23.061Z,96037.79
2018-10-05T04:43:52.124Z,96038.91
2018-10-05T04:46:27.306Z,96036.72
2018-10-05T04:48:57.425Z,96033.59
2018-10-05T04:51:27.139Z,96046.09
2018-10-05T04:53:56.533Z,96033.60
2018-10-05T04:56:26.057Z,96035.13
2018-10-05T04:58:55.376Z,96038.71
2018-10-05T05:01:31.130Z,96040.78
2018-10-05T05:04:00.989Z,96041.65
2018-10-05T05:06:30.444Z,96037.47
2018-10-05T05:09:00.205Z,96044.15
2018-10-05T05:11:30.298Z,96037.75
2018-10-05T05:13:59.771Z,96043.46
2018-10-05T05:16:29.045Z,96045.44
2018-10-05T05:18:58.007Z,96049.77
2018-10-05T05:21:27.090Z,96048.78
2018-10-05T05:23:56.627Z,96050.25
2018-10-05T05:26:26.052Z,96047.30
2018-10-05T05:28:55.123Z,96050.11
2018-10-05T05:31:24.052Z,96042.34
2018-10-05T05:33:53.179Z,96045.81
2018-10-05T05:36:22.375Z,96042.14
2018-10-05T05:38:51.576Z,96051.83
2018-10-05T05:41:20.561Z,96049.77
2018-10-05T05:43:49.911Z,96050.52
2018-10-05T05:46:18.976Z,96045.23
2018-10-05T05:48:48.077Z,96051.07
2018-10-05T05:51:17.305Z,96052.60
2018-10-05T05:53:47.130Z,96052.55
2018-10-05T05:56:16.291Z,96056.66
2018-10-05T05:58:45.723Z,96056.50
2018-10-05T06:01:14.906Z,96062.58
2018-10-05T06:03:43.931Z,96067.00
2018-10-05T06:06:15.901Z,96066.02
2018-10-05T06:08:48.007Z,96066.58
2018-10-05T06:11:17.162Z,96060.00
2018-10-05T06:13:46.431Z,96057.89
2018-10-05T06:16:15.563Z,96058.09
2018-10-05T06:18:44.830Z,96055.95
2018-10-05T06:21:14.090Z,96061.27
2018-10-05T06:23:50.071Z,96062.97
2018-10-05T06:26:19.291Z,96063.61
2018-10-05T06:28:48.573Z,96066.39
2018-10-05T06:31:18.011Z,96055.89
2018-10-05T06:33:47.032Z,96061.16
2018-10-05T06:36:16.168Z,96063.81
2018-10-05T06:38:45.379Z,96075.48
2018-10-05T06:41:17.419Z,96067.72
2018-10-05T06:43:46.714Z,96073.52
2018-10-05T06:46:18.935Z,96078.39
2018-10-05T06:48:48.343Z,96079.95
2018-10-05T06:51:17.744Z,96080.20
2018-10-05T06:53:46.776Z,96090.05
2018-10-05T06:56:16.062Z,96087.70
2018-10-05T06:58:45.174Z,96088.29
2018-10-05T07:01:15.109Z,96083.09
2018-10-05T07:03:44.350Z,96085.44
2018-10-05T07:06:13.505Z,96079.22
2018-10-05T07:08:42.582Z,96074.72
2018-10-05T07:11:12.069Z,96077.81
2018-10-05T07:13:41.142Z,96079.86
2018-10-05T07:16:10.715Z,96079.63
2018-10-05T07:18:39.782Z,96072.88
2018-10-05T07:21:08.963Z,96069.22
2018-10-05T07:23:44.117Z,96066.13
2018-10-05T07:26:19.782Z,96068.87
2018-10-05T07:28:49.301Z,96072.71
2018-10-05T07:31:18.496Z,96077.45
2018-10-05T07:33:47.723Z,96075.91
2018-10-05T07:36:23.196Z,96075.75
2018-10-05T07:38:52.373Z,96069.92
2018-10-05T07:41:21.318Z,96062.68
2018-10-05T07:43:50.746Z,96066.20
2018-10-05T07:46:19.990Z,96064.02
2018-10-05T07:48:49.373Z,96072.64
2018-10-05T07:51:18.776Z,96067.64
2018-10-05T07:53:48.424Z,96081.39
2018-10-05T07:56:17.709Z,96072.72
2018-10-05T07:58:46.994Z,96075.19
2018-10-05T08:01:16.330Z,96074.48
2018-10-05T08:03:48.648Z,96075.48
2018-10-05T08:06:17.588Z,96081.38
2018-10-05T08:08:46.528Z,96080.21
2018-10-05T08:11:15.517Z,96074.06
2018-10-05T08:13:44.477Z,96079.45
2018-10-05T08:16:13.537Z,96078.42
2018-10-05T08:18:42.541Z,96066.63
2018-10-05T08:21:12.015Z,96069.89
2018-10-05T08:23:41.000Z,96064.66
2018-10-05T08:26:09.892Z,96066.84
2018-10-05T08:28:39.212Z,96067.78
2018-10-05T08:31:08.228Z,96070.47
2018-10-05T08:33:37.161Z,96064.69
2018-10-05T08:36:06.272Z,96066.36
2018-10-05T08:38:35.380Z,96059.90
2018-10-05T08:41:04.531Z,96057.28
2018-10-05T08:43:33.689Z,96058.17
2018-10-05T08:46:03.460Z,96050.00
2018-10-05T08:48:32.328Z,96042.34
2018-10-05T08:51:02.136Z,96046.50
2018-10-05T08:53:31.133Z,96042.52
2018-10-05T08:56:00.108Z,96037.86
2018-10-05T08:58:29.058Z,96040.77
2018-10-05T09:00:58.176Z,96041.02
2018-10-05T09:03:27.489Z,96037.52
2018-10-05T09:05:56.769Z,96035.09
2018-10-05T09:08:25.785Z,96028.92
2018-10-05T09:10:54.980Z,96019.83
2018-10-05T09:13:23.994Z,96025.43
2018-10-05T09:15:53.017Z,96019.62
2018-10-05T09:18:21.937Z,96019.72
2018-10-05T09:20:51.080Z,96014.07
2018-10-05T09:23:20.183Z,96008.54
2018-10-05T09:25:49.232Z,95999.34
2018-10-05T09:28:18.332Z,96001.56
2018-10-05T09:30:47.391Z,95997.02
2018-10-05T09:33:16.180Z,95994.43
2018-10-05T09:35:45.324Z,95985.02
2018-10-05T09:38:14.684Z,95985.81
2018-10-05T09:40:44.092Z,95969.58
2018-10-05T09:43:13.035Z,95968.39
2018-10-05T09:45:41.913Z,95965.86
2018-10-05T09:48:11.021Z,95966.27
2018-10-05T09:50:39.993Z,95962.55
2018-10-05T09:53:09.013Z,95959.78
2018-10-05T09:55:38.208Z,95964.67
2018-10-05T09:58:07.325Z,95955.02
2018-10-05T10:00:41.540Z,95956.27
2018-10-05T10:03:41.176Z,95951.85
2018-10-05T10:06:10.061Z,95956.28
2018-10-05T10:08:39.160Z,95946.19
2018-10-05T10:11:08.276Z,95952.66
2018-10-05T10:13:37.408Z,95952.17
2018-10-05T10:16:06.562Z,95947.94
2018-10-05T10:18:35.834Z,95951.42
2018-10-05T10:21:04.930Z,95933.98
2018-10-05T10:23:34.065Z,95945.70
2018-10-05T10:26:03.149Z,95942.39
2018-10-05T10:28:32.192Z,95940.03
2018-10-05T10:31:01.494Z,95934.23
2018-10-05T10:33:30.814Z,95934.12
2018-10-05T10:36:06.296Z,95933.13
2018-10-05T10:38:35.360Z,95932.84
2018-10-05T10:41:04.562Z,95931.59
2018-10-05T10:43:33.616Z,95929.88
2018-10-05T10:46:03.215Z,95934.08
2018-10-05T10:48:32.229Z,95931.49
2018-10-05T10:51:01.276Z,95927.72
2018-10-05T10:53:30.461Z,95922.45
2018-10-05T10:55:59.571Z,95923.63
2018-10-05T10:58:28.526Z,95923.14
2018-10-05T11:00:57.532Z,95916.73
2018-10-05T11:03:32.712Z,95919.56
2018-10-05T11:06:02.070Z,95914.50
2018-10-05T11:08:31.092Z,95919.20
2018-10-05T11:11:00.309Z,95911.19
2018-10-05T11:13:29.410Z,95902.79
2018-10-05T11:15:58.427Z,95902.97
2018-10-05T11:18:27.496Z,95901.53
2018-10-05T11:21:03.353Z,95885.58
2018-10-05T11:23:38.735Z,95888.20
2018-10-05T11:26:14.417Z,95880.14
2018-10-05T11:28:43.354Z,95881.45
2018-10-05T11:31:12.452Z,95879.64
2018-10-05T11:33:41.590Z,95877.86
2018-10-05T11:36:10.632Z,95882.27
2018-10-05T11:38:40.083Z,95871.41
2018-10-05T11:41:09.061Z,95866.97
2018-10-05T11:43:38.120Z,95857.95
2018-10-05T11:46:07.234Z,95856.48
2018-10-05T11:48:36.255Z,95850.38
2018-10-05T11:51:11.996Z,95846.42
2018-10-05T11:53:41.140Z,95833.75
2018-10-05T11:56:10.405Z,95841.98
2018-10-05T11:58:39.664Z,95837.53
2018-10-05T12:01:08.825Z,95822.11
2018-10-05T12:03:44.400Z,95820.79
2018-10-05T12:06:14.596Z,95817.51
2018-10-05T12:08:43.694Z,95809.45
2018-10-05T12:11:19.579Z,95801.42
2018-10-05T12:13:48.891Z,95799.59
2018-10-05T12:16:17.842Z,95795.81
2018-10-05T12:18:47.184Z,95797.77
2018-10-05T12:21:16.831Z,95798.42
2018-10-05T12:23:45.823Z,95798.27
2018-10-05T12:26:14.848Z,95800.77
2018-10-05T12:28:43.836Z,95798.14
2018-10-05T12:31:13.016Z,95800.42
2018-10-05T12:33:42.152Z,95801.27
2018-10-05T12:36:11.222Z,95794.05
2018-10-05T12:38:40.298Z,95784.05
2018-10-05T12:41:10.075Z,95783.22
2018-10-05T12:43:39.300Z,95781.91
2018-10-05T12:46:08.205Z,95769.76
2018-10-05T12:48:38.037Z,95770.91
2018-10-05T12:51:07.107Z,95765.81
2018-10-05T12:53:42.961Z,95768.45
2018-10-05T12:56:12.085Z,95763.19
2018-10-05T12:58:42.058Z,95769.94
2018-10-05T13:01:11.489Z,95759.59
2018-10-05T13:03:40.637Z,95760.79
2018-10-05T13:06:09.712Z,95762.92
2018-10-05T13:08:38.912Z,95749.11
2018-10-05T13:11:07.978Z,95754.22
2018-10-05T13:13:37.570Z,95753.38
2018-10-05T13:16:06.732Z,95749.77
2018-10-05T13:18:36.078Z,95744.97
2018-10-05T13:21:07.250Z,95747.27
2018-10-05T13:23:36.326Z,95740.69
2018-10-05T13:26:05.451Z,95733.89
2018-10-05T13:28:34.521Z,95733.08
2018-10-05T13:31:03.614Z,95734.56
2018-10-05T13:33:33.025Z,95727.95
2018-10-05T13:36:02.372Z,95727.06
2018-10-05T13:38:31.308Z,95719.27
2018-10-05T13:41:00.308Z,95716.41
2018-10-05T13:43:29.258Z,95710.07
2018-10-05T13:45:57.702Z,95713.76
2018-10-05T13:48:26.129Z,95701.52
2018-10-05T13:50:54.567Z,95700.05
2018-10-05T13:53:22.975Z,95694.42
2018-10-05T13:55:51.505Z,95694.58
2018-10-05T13:58:19.976Z,95697.51
2018-10-05T14:00:48.546Z,95688.54
2018-10-05T14:03:17.071Z,95692.55
2018-10-05T14:05:45.653Z,95686.66
2018-10-05T14:08:14.125Z,95688.27
2018-10-05T14:10:42.663Z,95686.09
2018-10-05T14:13:11.159Z,95679.58
2018-10-05T14:15:40.582Z,95684.89
2018-10-05T14:18:09.020Z,95681.02
2018-10-05T14:20:38.133Z,95675.53
2018-10-05T14:23:06.563Z,95668.08
2018-10-05T14:25:35.120Z,95663.81
2018-10-05T14:28:03.513Z,95671.73
2018-10-05T14:30:31.919Z,95669.35
2018-10-05T14:33:00.407Z,95673.38
2018-10-05T14:35:30.485Z,95666.02
2018-10-05T14:37:58.946Z,95668.66
2018-10-05T14:40:27.366Z,95669.32
2018-10-05T14:42:56.153Z,95671.47
2018-10-05T14:45:24.534Z,95669.27
2018-10-05T14:47:52.955Z,95661.30
2018-10-05T14:50:21.334Z,95653.20
2018-10-05T14:52:49.950Z,95649.61
2018-10-05T14:55:18.382Z,95643.41
2018-10-05T14:57:46.838Z,95647.17
2018-10-05T15:00:15.293Z,95647.72
2018-10-05T15:02:43.786Z,95644.70
2018-10-05T15:05:12.247Z,95647.92
2018-10-05T15:07:40.707Z,95638.12
2018-10-05T15:10:09.378Z,95640.33
2018-10-05T15:12:37.855Z,95634.19
2018-10-05T15:15:06.700Z,95639.31
2018-10-05T15:17:35.220Z,95630.75
2018-10-05T15:20:04.739Z,95627.44
2018-10-05T15:22:33.535Z,95625.55
2018-10-05T15:25:02.141Z,95625.63
2018-10-05T15:27:30.584Z,95632.84
2018-10-05T15:29:59.088Z,95634.95
2018-10-05T15:32:27.576Z,95633.50
2018-10-05T15:34:56.649Z,95631.20
2018-10-05T15:37:25.384Z,95631.73
2018-10-05T15:39:53.864Z,95627.77
2018-10-05T15:42:22.315Z,95620.42
2018-10-05T15:44:50.814Z,95619.55
2018-10-05T15:47:19.285Z,95625.22
2018-10-05T15:49:47.799Z,95615.14
2018-10-05T15:52:16.239Z,95619.91
2018-10-05T15:54:44.649Z,95613.69
2018-10-05T15:57:13.120Z,95621.52
2018-10-05T15:59:41.615Z,95619.77
2018-10-05T16:02:10.743Z,95607.74
2018-10-05T16:04:39.297Z,95605.17
2018-10-05T16:07:07.983Z,95604.04
2018-10-05T16:09:36.495Z,95609.05
2018-10-05T16:12:05.401Z,95616.39
2018-10-05T16:14:33.881Z,95617.75
2018-10-05T16:17:02.340Z,95622.30
2018-10-05T16:19:30.785Z,95617.31
2018-10-05T16:21:59.443Z,95616.69
2018-10-05T16:38:41.865Z,95599.56
2018-10-05T16:44:25.110Z,95596.68
2018-10-05T16:46:53.982Z,95583.70
2018-10-05T16:49:22.615Z,95578.84
2018-10-05T16:51:51.179Z,95583.48
2018-10-05T16:54:19.695Z,95585.33
2018-10-05T17:23:51.364Z,95596.00
2018-10-05T17:26:19.982Z,95592.90
2018-10-05T17:28:48.548Z,95591.08
2018-10-05T17:31:17.156Z,95594.19
2018-10-05T17:33:45.849Z,95586.97
2018-10-05T17:36:14.404Z,95582.20
2018-10-05T17:38:43.080Z,95582.03
2018-10-05T17:41:11.711Z,95579.03
2018-10-05T17:43:40.248Z,95578.68
2018-10-05T17:46:08.744Z,95577.54
2018-10-05T17:48:39.095Z,95580.47
2018-10-05T17:51:07.801Z,95575.88
2018-10-05T18:35:20.987Z,95574.00
2018-10-05T18:51:13.094Z,95566.13
2018-10-05T18:53:41.690Z,95563.42
2018-10-05T18:56:21.605Z,95563.39
2018-10-05T18:58:50.031Z,95558.44
2018-10-05T19:01:18.632Z,95557.46
2018-10-05T19:03:47.422Z,95554.14
2018-10-05T19:06:16.419Z,95550.56
2018-10-05T19:08:45.075Z,95549.73
2018-10-05T19:11:13.572Z,95554.30
2018-10-05T19:13:42.146Z,95549.70
2018-10-05T19:16:10.654Z,95554.14
2018-10-05T19:18:39.502Z,95558.08
2018-10-05T19:21:08.044Z,95554.64
2018-10-05T19:23:36.722Z,95551.00
2018-10-05T19:26:06.031Z,95546.39
2018-10-05T19:28:34.678Z,95551.70
2018-10-05T19:31:04.067Z,95548.86
2018-10-05T19:33:32.586Z,95554.83
2018-10-05T19:36:01.027Z,95553.52
2018-10-05T19:38:29.646Z,95554.94
2018-10-05T19:40:58.151Z,95553.77
2018-10-05T19:43:28.023Z,95558.65
2018-10-05T19:45:57.378Z,95556.33
2018-10-05T19:48:26.926Z,95556.62
2018-10-05T19:50:55.538Z,95558.41
2018-10-05T19:53:24.359Z,95562.45
2018-10-05T19:55:52.847Z,95562.10
2018-10-05T19:58:21.478Z,95564.22
2018-10-05T20:00:50.167Z,95562.91
2018-10-05T20:03:19.050Z,95560.71
2018-10-05T20:05:47.505Z,95559.98
2018-10-05T20:08:15.910Z,95560.23
2018-10-05T20:10:44.405Z,95559.22
2018-10-05T20:13:12.846Z,95557.05
2018-10-05T20:15:41.762Z,95551.78
2018-10-05T20:18:10.782Z,95549.45
2018-10-05T20:20:39.834Z,95550.66
2018-10-05T20:23:08.405Z,95544.23
2018-10-05T20:25:38.254Z,95545.06
2018-10-05T20:28:06.717Z,95539.41
2018-10-05T20:30:35.539Z,95546.38
2018-10-05T20:33:04.892Z,95549.03
2018-10-05T20:35:33.893Z,95551.78
2018-10-05T20:38:03.063Z,95542.61
2018-10-05T20:40:33.568Z,95539.23
2018-10-05T20:43:02.694Z,95544.30
2018-10-05T20:45:31.286Z,95537.19
2018-10-05T20:48:00.117Z,95542.58
2018-10-05T20:50:29.007Z,95543.02
2018-10-05T20:52:57.746Z,95539.38
2018-10-05T20:55:26.162Z,95534.81
2018-10-05T20:57:55.056Z,95532.75
2018-10-05T21:00:23.859Z,95530.22
2018-10-05T21:02:52.451Z,95531.14
2018-10-05T21:05:21.439Z,95525.43
2018-10-05T21:07:49.891Z,95526.10
2018-10-05T21:10:18.374Z,95533.48
2018-10-05T21:12:46.858Z,95541.33
2018-10-05T21:15:15.397Z,95540.69
2018-10-05T21:17:44.449Z,95531.53
2018-10-05T21:20:12.885Z,95537.88
2018-10-05T21:22:41.334Z,95538.36
2018-10-05T21:25:09.779Z,95539.31
2018-10-05T21:27:44.707Z,95539.59
2018-10-05T21:30:13.146Z,95547.13
2018-10-05T21:32:41.652Z,95550.50
2018-10-05T21:35:10.045Z,95544.11
2018-10-05T21:37:38.502Z,95541.14
2018-10-05T21:40:06.982Z,95535.44
2018-10-05T21:42:35.785Z,95538.17
2018-10-05T21:45:04.321Z,95535.75
2018-10-05T21:47:32.694Z,95534.69
2018-10-05T21:50:02.028Z,95540.70
2018-10-05T21:52:30.551Z,95537.45
2018-10-05T21:54:59.389Z,95533.72
2018-10-05T21:57:28.017Z,95528.04
2018-10-05T21:59:56.440Z,95527.16
2018-10-05T22:02:29.269Z,95519.63
2018-10-05T22:04:57.702Z,95520.20
2018-10-05T22:07:26.095Z,95520.98
2018-10-05T22:09:54.525Z,95523.37
2018-10-05T22:12:23.030Z,95521.81
2018-10-05T22:14:51.477Z,95524.50
2018-10-05T22:17:19.886Z,95523.30
2018-10-05T22:19:48.348Z,95511.79
2018-10-05T22:22:16.755Z,95508.36
2018-10-05T22:24:45.189Z,95503.18
2018-10-05T22:27:13.583Z,95498.23
2018-10-05T22:29:42.017Z,95493.98
2018-10-05T22:32:10.401Z,95490.23
2018-10-05T22:34:38.827Z,95477.43
2018-10-05T22:37:07.218Z,95481.11
2018-10-05T22:39:35.647Z,95487.28
2018-10-05T22:42:04.086Z,95479.21
2018-10-05T22:44:32.549Z,95475.14
2018-10-05T22:47:00.949Z,95472.00
2018-10-05T22:49:29.350Z,95473.52
2018-10-05T22:51:57.790Z,95472.33
2018-10-05T22:54:26.271Z,95470.02
2018-10-05T22:56:54.709Z,95475.97
2018-10-05T22:59:23.129Z,95475.14
2018-10-05T23:01:51.565Z,95478.86
2018-10-05T23:04:19.970Z,95493.09
2018-10-05T23:06:48.397Z,95501.36
2018-10-05T23:09:16.786Z,95494.78
2018-10-05T23:11:45.250Z,95498.27
2018-10-05T23:14:13.626Z,95501.09
2018-10-05T23:16:42.062Z,95502.62
2018-10-05T23:19:10.446Z,95513.23
2018-10-05T23:21:38.886Z,95516.42
2018-10-05T23:24:07.392Z,95516.44
2018-10-05T23:26:35.821Z,95514.24
2018-10-05T23:29:04.270Z,95515.55
2018-10-05T23:31:32.709Z,95512.77
2018-10-05T23:34:01.092Z,95507.96
2018-10-05T23:36:29.469Z,95504.43
2018-10-05T23:38:57.889Z,95504.67
2018-10-05T23:41:26.266Z,95506.60
2018-10-05T23:43:54.681Z,95511.67
2018-10-05T23:46:23.124Z,95512.05
2018-10-05T23:48:51.545Z,95506.09
2018-10-05T23:51:19.957Z,95512.19
2018-10-05T23:53:48.401Z,95510.25
2018-10-05T23:56:16.778Z,95500.91
2018-10-05T23:58:45.214Z,95497.37
